Battle River, Minnesota
Current Conditions -  °F | °C
As of 1:51 PM on Sunday 23 Nov 2014 (Local Time) from KVWU Reporting Station
Overcast Overcast  
Wind Chill: 33°   Ceiling: 3800
Heat Index: 37°   Visibility: 10mi
Dew Point: 34°   Wind: 6mph
Humidity: 87%   Direction: 230°SW
Pressure: 29.39"   Gusts: NA
Location:  47.7306°N, 94.3762°W
Report Text: KVWU 231951Z AUTO 23005KT 10SM BKN038 BKN050 OVC075 03/01 A2939 RMK AO2
Loading
Personal Weather Stations






























Interactive Weather Map New forecast layout! Learn more

10-Day Weather Forecast

Advertisements
Track Severe Weather on mobile